Time;durP1;ratioP1;P1;durP2;ratioP2;P2;SDS_P1;SDS_P2;PMS_P1;PMS_P2;Temp;Humidity;BMP_temperature;BMP_pressure;BME280_temperature;BME280_humidity;BME280_pressure;Samples;Min_cycle;Max_cycle;Signal;HPM_P1;HPM_P2
2023/05/03 00:00:09;;;;;;;7.57;2.03;;;;;;;14.25;33.91;97942.97;10365156;28;20445;-50
2023/05/03 00:05:11;;;;;;;5.57;2.75;;;;;;;14.22;33.39;97926.47;10363700;28;20083;-48
2023/05/03 00:10:15;;;;;;;5.70;2.33;;;;;;;14.02;34.03;97872.78;10364405;28;20076;-49
2023/05/03 00:15:14;;;;;;;3.10;1.90;;;;;;;14.16;33.21;97903.94;10365517;28;20136;-49
2023/05/03 00:20:14;;;;;;;;;;;;;;;14.28;33.28;97924.63;10364817;28;20075;-48
2023/05/03 00:25:14;;;;;;;3.58;2.42;;;;;;;14.15;32.77;97891.78;10364020;28;19948;-51
2023/05/03 00:30:13;;;;;;;3.35;2.38;;;;;;;14.36;31.46;97930.63;10364648;28;20568;-51
2023/05/03 00:35:11;;;;;;;;;;;;;;;14.37;31.11;97927.13;10363654;28;20132;-51
2023/05/03 00:40:12;;;;;;;4.90;2.37;;;;;;;14.48;31.82;97923.53;10363792;28;20415;-50
2023/05/03 00:45:11;;;;;;;3.55;1.90;;;;;;;14.51;31.12;97926.09;10365057;28;20509;-51
2023/05/03 00:50:10;;;;;;;3.38;1.80;;;;;;;14.55;30.59;97933.00;10362846;28;20080;-50
2023/05/03 00:55:10;;;;;;;2.72;1.83;;;;;;;14.16;30.41;97864.78;10362864;28;20128;-51
2023/05/03 01:00:12;;;;;;;6.70;2.45;;;;;;;14.53;30.48;97947.81;10362018;28;20068;-50
2023/05/03 01:05:11;;;;;;;4.20;2.55;;;;;;;14.44;30.88;97933.13;10362498;28;20075;-50
2023/05/03 01:10:16;;;;;;;7.40;2.38;;;;;;;14.26;31.61;97939.44;10362683;28;20084;-50
2023/05/03 01:15:40;;;;;;;9.35;2.63;;;;;;;14.23;32.61;97963.00;10362117;28;20486;-50
2023/05/03 01:20:43;;;;;;;3.47;2.15;;;;;;;14.03;33.02;97960.63;10362463;28;20498;-51
2023/05/03 01:25:41;;;;;;;3.35;2.08;;;;;;;14.16;32.92;97956.13;10362365;28;20502;-50
2023/05/03 01:30:41;;;;;;;;;;;;;;;14.08;33.63;97944.94;10361765;28;20381;-50
2023/05/03 01:36:08;;;;;;;3.45;2.42;;;;;;;14.10;33.60;97943.13;10361677;28;19982;-50
2023/05/03 01:41:10;;;;;;;3.78;2.33;;;;;;;14.03;34.25;97937.16;10361385;28;20469;-50
2023/05/03 01:46:10;;;;;;;5.95;2.67;;;;;;;13.88;34.81;97924.28;10362868;28;20072;-49
2023/05/03 01:51:09;;;;;;;3.55;2.40;;;;;;;13.95;35.44;97928.53;10364006;28;20072;-51
2023/05/03 01:56:08;;;;;;;5.78;2.42;;;;;;;13.96;36.20;97925.03;10363368;28;20087;-50
2023/05/03 02:01:07;;;;;;;;;;;;;;;13.97;36.25;97921.56;10364370;28;20083;-50
2023/05/03 02:06:06;;;;;;;3.58;2.25;;;;;;;13.97;36.58;97917.19;10363896;28;19920;-50
2023/05/03 02:11:05;;;;;;;5.32;2.60;;;;;;;13.94;36.46;97922.47;10363564;28;20514;-53
2023/05/03 02:16:04;;;;;;;;;;;;;;;13.93;36.72;97918.09;10363451;28;20116;-51
2023/05/03 02:21:03;;;;;;;4.10;2.40;;;;;;;13.88;37.05;97912.09;10363727;28;20398;-50
2023/05/03 02:26:02;;;;;;;5.35;2.47;;;;;;;13.88;37.37;97922.53;10362958;28;20068;-49
2023/05/03 02:31:01;;;;;;;;;;;;;;;13.87;37.22;97912.97;10370342;28;20103;-50
2023/05/03 02:36:00;;;;;;;8.15;3.33;;;;;;;13.71;37.68;97933.16;10371238;28;19916;-51
2023/05/03 02:40:59;;;;;;;4.75;2.83;;;;;;;13.78;37.16;97928.75;10371120;28;20521;-50
2023/05/03 02:45:58;;;;;;;;;;;;;;;13.71;37.44;97916.66;10369605;28;20064;-50
2023/05/03 02:50:57;;;;;;;6.57;2.92;;;;;;;13.69;37.66;97928.84;10366735;28;19924;-51
2023/05/03 02:55:56;;;;;;;4.75;2.72;;;;;;;13.63;37.60;97942.78;10367463;28;20047;-49
2023/05/03 03:00:55;;;;;;;;;;;;;;;13.61;37.88;97947.19;10368023;28;20115;-51
2023/05/03 03:05:53;;;;;;;6.35;3.78;;;;;;;13.63;37.60;97952.34;10366810;28;19999;-51
2023/05/03 03:10:52;;;;;;;3.88;2.60;;;;;;;13.43;38.65;97937.75;10366956;28;20056;-50
2023/05/03 03:15:51;;;;;;;5.82;3.17;;;;;;;13.34;39.15;97945.66;10366577;28;21159;-49
2023/05/03 03:20:50;;;;;;;4.80;2.67;;;;;;;13.41;39.05;97938.66;10366610;28;20035;-50
2023/05/03 03:25:49;;;;;;;;;;;;;;;13.40;38.80;97939.50;10367331;28;20064;-50
2023/05/03 03:30:48;;;;;;;6.85;2.90;;;;;;;13.45;38.89;97936.00;10365015;28;20026;-49
2023/05/03 03:35:47;;;;;;;;;;;;;;;13.33;39.51;97943.94;10366326;28;20041;-51
2023/05/03 03:40:46;;;;;;;6.28;3.08;;;;;;;13.20;39.38;97937.09;10364437;28;19952;-50
2023/05/03 03:45:45;;;;;;;5.55;2.60;;;;;;;13.09;39.55;97939.78;10365730;28;20033;-50
2023/05/03 03:50:44;;;;;;;4.03;2.88;;;;;;;13.10;39.56;97955.41;10363389;28;20076;-51
2023/05/03 03:55:43;;;;;;;;;;;;;;;13.15;39.94;97965.78;10365812;28;20132;-49
2023/05/03 04:00:42;;;;;;;4.07;2.92;;;;;;;13.17;39.92;97973.63;10364172;28;20003;-51
2023/05/03 04:05:41;;;;;;;5.95;3.05;;;;;;;13.12;39.66;97971.91;10365201;28;20120;-50
2023/05/03 04:10:40;;;;;;;;;;;;;;;13.23;39.93;97979.59;10365558;28;20040;-51
2023/05/03 04:15:39;;;;;;;6.38;2.88;;;;;;;13.18;40.69;97989.22;10364229;28;19928;-51
2023/05/03 04:20:38;;;;;;;4.00;2.85;;;;;;;13.22;40.34;97993.53;10363858;28;20503;-51
2023/05/03 04:25:37;;;;;;;6.30;3.38;;;;;;;13.30;40.53;97990.84;10364791;28;20570;-51
2023/05/03 04:30:36;;;;;;;;;;;;;;;13.30;40.74;97993.47;10364042;28;20116;-48
2023/05/03 04:35:35;;;;;;;7.53;3.47;;;;;;;13.35;40.80;98007.31;10297836;28;19925;-50
2023/05/03 04:40:34;;;;;;;;;;;;;;;13.36;41.49;98012.53;10363714;28;20095;-51
2023/05/03 04:45:33;;;;;;;4.63;3.00;;;;;;;13.40;41.41;98018.59;10364109;28;20004;-50
2023/05/03 04:50:32;;;;;;;;;;;;;;;13.34;41.55;98019.50;10363933;28;20091;-50
2023/05/03 04:55:32;;;;;;;6.13;3.38;;;;;;;13.35;41.11;98023.84;10365528;28;19924;-51
2023/05/03 05:00:31;;;;;;;7.68;3.47;;;;;;;13.36;41.45;98038.59;10346987;28;20072;-50
2023/05/03 05:05:29;;;;;;;;;;;;;;;13.38;41.56;98040.34;10365469;28;20120;-50
2023/05/03 05:10:28;;;;;;;6.57;2.97;;;;;;;13.23;42.08;98036.09;10365746;28;20308;-51
2023/05/03 05:15:27;;;;;;;;;;;;;;;13.27;42.91;98056.91;10365538;28;20072;-50
2023/05/03 05:20:26;;;;;;;6.65;3.08;;;;;;;13.29;43.96;98068.19;10365663;28;19982;-50
2023/05/03 05:25:26;;;;;;;;;;;;;;;13.24;45.14;98084.75;10365320;28;20037;-51
2023/05/03 05:30:25;;;;;;;8.68;3.67;;;;;;;13.16;45.77;98082.16;10364133;28;20490;-49
2023/05/03 05:35:23;;;;;;;6.38;3.60;;;;;;;13.08;46.73;98092.63;10365243;28;20732;-47
2023/05/03 05:40:22;;;;;;;8.45;3.45;;;;;;;12.95;46.51;98090.97;10363644;28;20055;-49
2023/05/03 05:45:21;;;;;;;5.80;3.40;;;;;;;12.97;47.22;98089.22;10362771;28;20025;-48
2023/05/03 05:50:20;;;;;;;;;;;;;;;13.08;45.68;98097.84;10357641;28;20415;-50
2023/05/03 05:55:20;;;;;;;8.88;4.10;;;;;;;13.12;46.29;98102.19;10361102;28;19923;-51
2023/05/03 06:00:20;;;;;;;6.38;3.47;;;;;;;13.18;46.98;98100.41;10360014;28;20095;-50
2023/05/03 06:05:19;;;;;;;5.25;3.35;;;;;;;13.26;48.19;98115.13;10357840;28;20511;-51
2023/05/03 06:10:18;;;;;;;6.10;3.42;;;;;;;12.85;49.75;98034.59;10360464;28;20112;-51
2023/05/03 06:15:17;;;;;;;;;;;;;;;13.33;50.00;98110.75;10359747;28;20071;-49
2023/05/03 06:20:17;;;;;;;8.45;3.97;;;;;;;13.11;50.38;98045.72;10358370;28;20007;-51
2023/05/03 06:25:16;;;;;;;6.18;3.70;;;;;;;13.56;49.59;98108.00;10359966;28;20072;-53
2023/05/03 06:30:15;;;;;;;;;;;;;;;13.67;49.34;98097.50;10360439;28;20139;-50
2023/05/03 06:35:14;;;;;;;7.37;4.13;;;;;;;13.56;49.49;98061.06;10360199;28;20444;-50
2023/05/03 06:40:14;;;;;;;;;;;;;;;13.98;48.78;98093.75;10360553;28;20071;-48
2023/05/03 06:45:13;;;;;;;7.57;4.07;;;;;;;14.11;47.48;98093.63;10358141;28;20401;-50
2023/05/03 06:50:12;;;;;;;8.55;4.40;;;;;;;14.26;48.20;98090.84;10358710;28;20764;-50
2023/05/03 06:55:11;;;;;;;7.50;4.20;;;;;;;14.50;47.48;98091.47;10359107;28;20080;-49
2023/05/03 07:00:10;;;;;;;;;;;;;;;14.82;45.81;98085.88;10361385;28;20041;-49
2023/05/03 07:05:09;;;;;;;7.67;4.40;;;;;;;14.86;47.10;98082.38;10362720;28;20438;-51
2023/05/03 07:10:08;;;;;;;;;;;;;;;14.94;46.78;98070.03;10358268;28;20072;-51
2023/05/03 07:15:09;;;;;;;8.20;4.82;;;;;;;15.37;46.78;98058.13;10362399;28;19935;-49
2023/05/03 07:20:08;;;;;;;5.70;3.83;;;;;;;15.67;45.42;98047.19;10364420;28;20139;-51
2023/05/03 07:25:07;;;;;;;9.02;5.25;;;;;;;15.93;46.37;98043.28;10367244;28;20477;-49
2023/05/03 07:30:07;;;;;;;10.80;5.65;;;;;;;15.62;46.97;98041.16;10362977;28;20605;-49
2023/05/03 07:35:06;;;;;;;10.95;6.03;;;;;;;15.71;48.81;98047.13;10364858;28;20120;-51
2023/05/03 07:40:06;;;;;;;9.48;5.88;;;;;;;15.58;50.75;98057.78;10362400;28;20127;-50
2023/05/03 07:45:05;;;;;;;12.48;7.15;;;;;;;15.44;52.76;98057.16;10365787;28;20167;-50
2023/05/03 07:50:06;;;;;;;14.15;7.43;;;;;;;15.45;53.32;98061.47;10363563;28;20176;-51
2023/05/03 07:55:06;;;;;;;9.52;6.70;;;;;;;15.11;53.65;98054.16;10366963;28;20131;-49
2023/05/03 08:00:09;;;;;;;10.20;7.05;;;;;;;14.94;53.68;98049.13;10367480;28;20132;-51
2023/05/03 08:05:10;;;;;;;11.30;6.80;;;;;;;15.08;53.69;98046.34;10362052;28;20119;-50
2023/05/03 08:10:09;;;;;;;15.05;8.25;;;;;;;15.42;53.51;98056.31;10368780;28;20565;-50
2023/05/03 08:15:08;;;;;;;13.98;8.05;;;;;;;15.72;52.93;98051.47;10367981;28;20056;-50
2023/05/03 08:20:08;;;;;;;15.18;7.30;;;;;;;15.82;51.67;98046.06;10366725;28;20125;-51
2023/05/03 08:25:08;;;;;;;9.40;5.97;;;;;;;15.92;51.43;98033.69;10361872;28;20061;-52
2023/05/03 08:30:08;;;;;;;12.63;5.93;;;;;;;16.26;50.88;98047.03;10368209;28;20068;-51
2023/05/03 08:35:07;;;;;;;9.65;5.22;;;;;;;16.54;49.73;98045.63;10367522;28;20460;-51
2023/05/03 08:40:10;;;;;;;9.00;5.53;;;;;;;16.86;48.29;98053.72;10368308;28;20060;-52
2023/05/03 08:45:11;;;;;;;8.80;5.40;;;;;;;17.04;46.43;98048.94;10358183;28;20176;-51
2023/05/03 08:50:12;;;;;;;7.70;4.50;;;;;;;17.60;45.71;98035.41;10362714;28;20076;-51
2023/05/03 08:55:11;;;;;;;7.57;4.40;;;;;;;18.09;44.07;98042.06;10366341;28;20060;-52
2023/05/03 09:00:11;;;;;;;9.02;4.70;;;;;;;18.10;43.23;98033.25;10365629;28;20067;-51
2023/05/03 09:05:14;;;;;;;8.23;4.45;;;;;;;18.38;43.17;98028.09;10362430;28;20087;-51
2023/05/03 09:10:23;;;;;;;9.50;4.45;;;;;;;18.48;41.24;98023.44;10366259;28;20131;-52
2023/05/03 09:15:22;;;;;;;;;;;;;;;18.57;41.76;98026.69;10368262;28;20068;-52
2023/05/03 09:20:33;;;;;;;6.53;4.30;;;;;;;18.68;40.86;98017.63;10365334;28;19912;-51
2023/05/03 09:25:50;;;;;;;6.18;4.53;;;;;;;18.25;42.28;97972.44;10364905;28;20462;-52
2023/05/03 09:31:02;;;;;;;5.10;3.97;;;;;;;18.21;42.98;98015.44;10365475;28;20132;-52
2023/05/03 09:36:03;;;;;;;7.38;4.47;;;;;;;17.90;43.14;98018.03;10365228;28;20148;-52
2023/05/03 09:41:04;;;;;;;7.60;4.25;;;;;;;17.79;44.03;98013.06;10362349;28;20123;-53
2023/05/03 09:46:12;;;;;;;5.85;4.72;;;;;;;17.63;44.99;97998.56;10364969;28;20152;-52
2023/05/03 09:51:11;;;;;;;5.90;4.10;;;;;;;17.36;45.65;98003.63;10365936;28;20098;-51
2023/05/03 09:56:14;;;;;;;4.63;3.70;;;;;;;17.66;45.09;97999.38;10363091;28;20136;-52
2023/05/03 10:01:15;;;;;;;6.60;4.45;;;;;;;17.65;45.82;97955.66;10358738;28;20087;-52
2023/05/03 10:06:39;;;;;;;6.82;4.35;;;;;;;18.19;45.35;97989.22;10363151;28;20111;-52
2023/05/03 10:11:46;;;;;;;9.65;4.43;;;;;;;18.81;44.52;97980.44;10364217;28;20060;-53
2023/05/03 10:16:50;;;;;;;8.15;4.28;;;;;;;19.23;44.00;97994.94;10362245;28;20115;-52
2023/05/03 10:22:04;;;;;;;6.25;4.00;;;;;;;19.46;43.48;97986.28;10365714;28;20474;-52
2023/05/03 10:27:07;;;;;;;7.88;4.40;;;;;;;19.28;44.34;97919.34;10363128;28;20083;-52
2023/05/03 10:32:31;;;;;;;6.03;4.63;;;;;;;19.72;43.62;97966.13;10363032;28;20594;-52
2023/05/03 10:37:33;;;;;;;7.03;4.50;;;;;;;19.77;43.17;97943.16;10361357;28;20116;-52
2023/05/03 10:42:32;;;;;;;6.93;4.53;;;;;;;19.92;43.21;97954.91;10363596;28;20068;-52
2023/05/03 10:47:31;;;;;;;5.97;4.40;;;;;;;20.12;42.56;97954.19;10363154;28;20510;-52
2023/05/03 10:52:42;;;;;;;10.95;6.68;;;;;;;20.34;41.91;97959.56;10363537;28;20529;-52
2023/05/03 10:57:42;;;;;;;7.22;3.90;;;;;;;20.60;42.28;97955.97;10366204;28;20116;-52
2023/05/03 11:03:08;;;;;;;8.32;4.80;;;;;;;20.50;41.61;97956.31;10366751;28;20116;-53
2023/05/03 11:08:18;;;;;;;4.53;3.85;;;;;;;20.47;41.85;97945.88;10368719;28;20637;-53
2023/05/03 11:13:17;;;;;;;7.18;4.75;;;;;;;20.80;42.25;97936.75;10367842;28;20061;-53
2023/05/03 11:18:16;;;;;;;5.45;4.45;;;;;;;21.08;41.40;97939.13;10367845;28;20044;-53
2023/05/03 11:23:15;;;;;;;5.15;4.55;;;;;;;20.79;41.71;97940.28;10369440;28;20107;-52
2023/05/03 11:28:15;;;;;;;6.70;4.90;;;;;;;20.58;41.86;97942.81;10370647;28;20028;-52
2023/05/03 11:33:14;;;;;;;9.20;5.40;;;;;;;20.60;42.07;97935.72;10368667;28;20486;-52
2023/05/03 11:38:13;;;;;;;5.30;4.20;;;;;;;20.74;41.96;97931.69;10369757;28;20153;-52
2023/05/03 11:43:12;;;;;;;5.50;4.38;;;;;;;21.20;41.15;97929.84;10370831;28;20494;-52
2023/05/03 11:48:12;;;;;;;9.70;4.85;;;;;;;21.03;42.23;97898.84;10368194;28;20087;-52
2023/05/03 11:53:13;;;;;;;7.88;4.43;;;;;;;21.34;41.56;97930.16;10367340;28;20135;-53
2023/05/03 11:58:19;;;;;;;4.88;4.38;;;;;;;21.84;39.70;97911.28;10366620;28;20533;-53
2023/05/03 12:03:20;;;;;;;5.40;3.97;;;;;;;22.03;39.71;97905.22;10363679;28;20067;-53
2023/05/03 12:08:21;;;;;;;4.80;4.20;;;;;;;22.43;38.91;97911.31;10367289;28;20439;-54
2023/05/03 12:13:36;;;;;;;8.90;4.57;;;;;;;22.12;38.83;97904.81;10367825;28;20073;-53
2023/05/03 12:19:02;;;;;;;6.38;3.72;;;;;;;21.86;40.25;97901.50;10366818;28;20132;-53
2023/05/03 12:24:01;;;;;;;5.68;4.13;;;;;;;21.93;39.31;97899.47;10367120;28;20068;-53
2023/05/03 12:29:00;;;;;;;8.80;4.57;;;;;;;21.40;40.48;97890.28;10368405;28;20079;-53
2023/05/03 12:33:59;;;;;;;5.63;3.72;;;;;;;20.69;41.75;97885.25;10367561;28;20095;-52
2023/05/03 12:38:59;;;;;;;7.55;3.90;;;;;;;20.18;42.73;97875.78;10366670;28;20136;-52
2023/05/03 12:43:58;;;;;;;7.38;4.13;;;;;;;20.37;42.59;97869.81;10366518;28;20062;-53
2023/05/03 12:48:57;;;;;;;5.95;4.10;;;;;;;20.23;42.87;97872.97;10366426;28;20032;-52
2023/05/03 12:53:56;;;;;;;5.28;4.38;;;;;;;20.13;42.98;97872.47;10367212;28;20108;-52
2023/05/03 12:58:55;;;;;;;5.05;3.80;;;;;;;20.12;43.61;97856.72;10366474;28;20033;-52
2023/05/03 13:03:54;;;;;;;7.28;4.60;;;;;;;20.28;44.05;97853.44;10364609;28;20259;-53
2023/05/03 13:08:55;;;;;;;11.27;6.25;;;;;;;20.33;44.12;97855.03;10360142;28;20072;-51
2023/05/03 13:13:54;;;;;;;11.48;6.15;;;;;;;20.06;44.63;97807.75;10360972;28;20112;-52
2023/05/03 13:18:55;;;;;;;13.57;6.05;;;;;;;20.01;45.58;97846.59;10362061;28;20140;-52
2023/05/03 13:23:54;;;;;;;6.43;4.35;;;;;;;19.53;47.68;97842.16;10358132;28;20589;-56
2023/05/03 13:28:53;;;;;;;8.55;5.32;;;;;;;19.33;48.41;97833.22;10358662;28;20092;-52
2023/05/03 13:33:55;;;;;;;9.77;4.45;;;;;;;19.31;47.59;97829.78;10362546;28;20130;-53
2023/05/03 13:38:54;;;;;;;7.28;4.63;;;;;;;19.37;48.25;97828.69;10361022;28;20075;-53
2023/05/03 13:43:53;;;;;;;6.93;4.90;;;;;;;19.52;49.87;97835.19;10361226;28;20124;-52
2023/05/03 13:48:55;;;;;;;13.50;6.47;;;;;;;19.27;52.65;97796.56;10361467;28;20048;-53
2023/05/03 13:53:54;;;;;;;7.07;5.47;;;;;;;19.44;55.13;97862.66;10360753;28;20124;-53
2023/05/03 13:58:54;;;;;;;8.93;5.28;;;;;;;18.81;55.27;97822.69;10360845;28;20052;-53
2023/05/03 14:03:54;;;;;;;12.68;6.75;;;;;;;18.48;57.69;97821.09;10361181;28;20072;-52
2023/05/03 14:08:55;;;;;;;15.25;7.75;;;;;;;18.37;59.59;97892.41;10360232;28;20115;-52
2023/05/03 14:13:54;;;;;;;11.13;7.68;;;;;;;18.05;62.39;97912.59;10359666;28;20075;-52
2023/05/03 14:18:53;;;;;;;8.48;6.55;;;;;;;17.63;60.83;97899.72;10359110;28;20064;-51
2023/05/03 14:23:52;;;;;;;8.93;6.97;;;;;;;17.14;64.09;97880.00;10358870;28;20128;-52
2023/05/03 14:28:51;;;;;;;12.38;9.05;;;;;;;16.36;74.77;97887.94;10359760;28;20020;-52
2023/05/03 14:33:50;;;;;;;13.32;10.70;;;;;;;16.01;76.94;97891.31;10360179;28;20041;-52
2023/05/03 14:38:49;;;;;;;;;;;;;;;15.48;78.27;97899.28;10360642;28;20049;-51
2023/05/03 14:43:47;;;;;;;16.47;13.50;;;;;;;15.29;81.80;97897.88;10359883;28;19928;-52
2023/05/03 14:48:46;;;;;;;;;;;;;;;15.31;83.93;97902.19;10362229;28;20128;-53
2023/05/03 14:53:45;;;;;;;20.77;13.47;;;;;;;15.39;84.53;97909.94;10358531;28;19960;-53
2023/05/03 14:58:44;;;;;;;;;;;;;;;15.41;85.34;97932.53;10358872;28;20044;-52
2023/05/03 15:03:43;;;;;;;15.38;10.80;;;;;;;15.36;84.67;97930.88;10358120;28;20588;-52
2023/05/03 15:08:42;;;;;;;;;;;;;;;15.34;83.48;97922.19;10359426;28;20132;-52
2023/05/03 15:13:41;;;;;;;15.53;10.57;;;;;;;15.28;83.64;97894.41;10358715;28;20271;-51
2023/05/03 15:18:41;;;;;;;;;;;;;;;15.36;82.65;97904.72;10358721;28;20028;-52
2023/05/03 15:23:40;;;;;;;11.35;8.63;;;;;;;15.40;81.80;97907.25;10357594;28;19999;-52
2023/05/03 15:28:39;;;;;;;11.57;8.65;;;;;;;15.21;80.53;97896.28;10357459;28;20135;-52
2023/05/03 15:33:42;;;;;;;;;;;;;;;15.18;79.71;97901.56;10358958;28;20071;-52
2023/05/03 15:38:41;;;;;;;12.80;8.82;;;;;;;15.29;80.65;97897.88;10362437;28;19999;-52
2023/05/03 15:43:39;;;;;;;;;;;;;;;15.27;79.54;97890.06;10365028;28;20052;-52
2023/05/03 15:48:38;;;;;;;16.40;11.30;;;;;;;15.28;80.13;97901.41;10365469;28;20356;-52
2023/05/03 15:53:37;;;;;;;;;;;;;;;15.34;81.56;97914.34;10365896;28;20399;-52
2023/05/03 15:58:36;;;;;;;12.20;9.40;;;;;;;15.40;81.55;97928.19;10364765;28;20074;-52
2023/05/03 16:03:35;;;;;;;;;;;;;;;15.44;82.01;97935.09;10368387;28;20123;-52
2023/05/03 16:08:34;;;;;;;10.90;8.17;;;;;;;15.35;81.30;97909.09;10364585;28;19912;-52
2023/05/03 16:13:33;;;;;;;10.45;7.50;;;;;;;15.28;80.84;97927.56;10363708;28;20112;-52
2023/05/03 16:18:33;;;;;;;12.13;8.85;;;;;;;15.24;80.55;97932.81;10364829;28;20131;-52
2023/05/03 16:23:32;;;;;;;15.13;9.18;;;;;;;15.15;80.62;97919.88;10364383;28;20091;-50
2023/05/03 16:28:30;;;;;;;;;;;;;;;15.16;81.08;97924.25;10363953;28;20582;-52
2023/05/03 16:33:29;;;;;;;12.33;8.90;;;;;;;15.08;80.87;97914.78;10362805;28;20418;-51
2023/05/03 16:38:29;;;;;;;;;;;;;;;15.06;80.93;97911.34;10363901;28;20116;-51
2023/05/03 16:43:29;;;;;;;13.90;10.20;;;;;;;15.05;82.18;97892.19;10362406;28;19956;-51
2023/05/03 16:48:29;;;;;;;13.98;9.32;;;;;;;14.62;81.11;97853.69;10361711;28;20187;-53
2023/05/03 16:53:28;;;;;;;11.35;8.98;;;;;;;14.92;81.66;97922.00;10365313;28;20494;-51
2023/05/03 16:58:26;;;;;;;;;;;;;;;14.80;81.14;97921.34;10362613;28;20499;-51
2023/05/03 17:03:25;;;;;;;19.27;14.40;;;;;;;14.78;82.02;97933.56;10361369;28;19955;-51
2023/05/03 17:08:24;;;;;;;;;;;;;;;14.73;82.20;97944.94;10361901;28;20115;-49
2023/05/03 17:13:23;;;;;;;14.60;10.88;;;;;;;14.55;82.16;97935.63;10361299;28;20002;-51
2023/05/03 17:18:22;;;;;;;13.43;10.90;;;;;;;14.56;81.69;97953.00;10362288;28;20447;-51
2023/05/03 17:23:21;;;;;;;;;;;;;;;14.42;83.36;97950.56;10361966;28;20517;-51
2023/05/03 17:28:20;;;;;;;15.32;13.55;;;;;;;14.43;83.30;97960.16;10360672;28;20390;-49
2023/05/03 17:33:19;;;;;;;;;;;;;;;14.30;83.57;97962.03;10361822;28;20548;-52
2023/05/03 17:38:17;;;;;;;12.68;10.15;;;;;;;14.15;82.87;97964.84;10361653;28;20218;-51
2023/05/03 17:43:17;;;;;;;13.45;11.18;;;;;;;14.09;83.66;97962.31;10360135;28;20039;-54
2023/05/03 17:48:15;;;;;;;15.45;11.80;;;;;;;14.00;82.75;97971.09;10358322;28;20068;-53
2023/05/03 17:53:15;;;;;;;;;;;;;;;14.00;82.24;97963.25;10361089;28;20115;-50
2023/05/03 17:58:14;;;;;;;16.98;12.40;;;;;;;13.94;82.41;97974.66;10358427;28;20372;-53
2023/05/03 18:03:15;;;;;;;;;;;;;;;13.96;83.09;97977.22;10359870;28;20047;-51
2023/05/03 18:08:14;;;;;;;13.98;11.70;;;;;;;13.96;82.95;97985.03;10359798;28;20383;-51
2023/05/03 18:13:13;;;;;;;;;;;;;;;13.94;82.99;97982.47;10359475;28;20480;-54
2023/05/03 18:18:12;;;;;;;18.40;15.00;;;;;;;13.98;83.27;97985.88;10359616;28;20294;-51
2023/05/03 18:23:11;;;;;;;19.35;14.73;;;;;;;14.01;84.03;97975.44;10360781;28;20131;-50
2023/05/03 18:28:10;;;;;;;;;;;;;;;13.96;84.90;97967.66;10359593;28;20036;-53
2023/05/03 18:33:08;;;;;;;22.60;18.15;;;;;;;13.96;84.91;97966.78;10358371;28;19912;-50
2023/05/03 18:38:08;;;;;;;20.67;17.00;;;;;;;13.95;85.27;97978.97;10359345;28;20581;-54
2023/05/03 18:43:07;;;;;;;24.08;17.60;;;;;;;13.94;86.20;97969.44;10358043;28;20131;-49
2023/05/03 18:48:07;;;;;;;;;;;;;;;13.97;86.20;97986.78;10359520;28;20048;-51
2023/05/03 18:53:05;;;;;;;23.25;18.55;;;;;;;13.91;85.98;97977.28;10359059;28;19947;-50
2023/05/03 18:58:04;;;;;;;19.92;15.23;;;;;;;13.72;85.67;97950.50;10358042;28;20041;-49
2023/05/03 19:03:04;;;;;;;;;;;;;;;13.72;86.14;97980.94;10359891;28;20545;-49
2023/05/03 19:08:04;;;;;;;22.60;16.65;;;;;;;13.66;86.17;97996.69;10359789;28;19960;-51
2023/05/03 19:13:03;;;;;;;21.73;16.80;;;;;;;13.56;86.35;98009.81;10366405;28;20132;-51
2023/05/03 19:18:02;;;;;;;;;;;;;;;13.57;86.40;98015.88;10367507;28;20112;-51
2023/05/03 19:23:01;;;;;;;22.25;15.65;;;;;;;13.53;86.51;98009.78;10363076;28;19974;-51
2023/05/03 19:28:00;;;;;;;21.40;16.38;;;;;;;13.50;86.81;98017.63;10366629;28;20068;-50
2023/05/03 19:32:59;;;;;;;;;;;;;;;13.40;87.06;98018.59;10366800;28;20102;-51
2023/05/03 19:37:58;;;;;;;28.43;20.17;;;;;;;13.26;87.08;98008.28;10366573;28;20020;-51
2023/05/03 19:42:57;;;;;;;;;;;;;;;13.21;87.15;98001.34;10366456;28;20107;-50
2023/05/03 19:47:56;;;;;;;28.83;23.38;;;;;;;13.12;87.49;97995.34;10365413;28;19916;-51
2023/05/03 19:52:55;;;;;;;31.45;23.90;;;;;;;13.03;88.13;98003.22;10366185;28;20029;-51
2023/05/03 19:57:54;;;;;;;28.23;22.45;;;;;;;12.96;88.10;98011.09;10365742;28;20434;-51
2023/05/03 20:02:53;;;;;;;26.50;21.38;;;;;;;12.86;88.45;98000.75;10363787;28;20067;-51
2023/05/03 20:07:52;;;;;;;28.27;21.80;;;;;;;12.76;88.42;97995.59;10363382;28;20116;-52
2023/05/03 20:12:51;;;;;;;;;;;;;;;12.68;88.47;98001.69;10364112;28;20041;-49
2023/05/03 20:17:52;;;;;;;22.50;18.55;;;;;;;12.56;87.89;98000.91;10365665;28;19925;-51
2023/05/03 20:22:51;;;;;;;21.83;16.15;;;;;;;12.37;87.96;97993.19;10363088;28;20147;-51
2023/05/03 20:27:50;;;;;;;;;;;;;;;12.23;88.26;97989.75;10364925;28;20133;-50
2023/05/03 20:32:49;;;;;;;19.23;15.52;;;;;;;12.03;88.21;97982.00;10364123;28;20331;-51
2023/05/03 20:37:48;;;;;;;20.63;17.00;;;;;;;11.91;88.39;97990.69;10363588;28;20395;-51
2023/05/03 20:42:47;;;;;;;22.42;17.40;;;;;;;11.81;88.75;97997.66;10364677;28;20045;-52
2023/05/03 20:47:45;;;;;;;22.33;17.23;;;;;;;11.73;89.02;97989.00;10366532;28;20057;-51
2023/05/03 20:52:44;;;;;;;28.33;19.95;;;;;;;11.65;89.24;97982.97;10364943;28;20435;-52
2023/05/03 20:57:43;;;;;;;28.13;21.13;;;;;;;11.55;89.75;97982.13;10366302;28;20043;-51
2023/05/03 21:02:42;;;;;;;26.17;18.90;;;;;;;11.00;89.53;97906.81;10364501;28;20053;-51
2023/05/03 21:07:41;;;;;;;27.00;19.00;;;;;;;11.38;89.91;97979.50;10364940;28;20112;-51
2023/05/03 21:12:40;;;;;;;25.27;17.92;;;;;;;11.28;89.69;97980.38;10364940;28;20163;-52
2023/05/03 21:17:39;;;;;;;24.67;16.52;;;;;;;11.11;89.85;97961.34;10364122;28;20044;-51
2023/05/03 21:22:38;;;;;;;23.67;17.50;;;;;;;10.94;89.93;97950.94;10365290;28;20094;-52
2023/05/03 21:27:37;;;;;;;22.55;16.65;;;;;;;11.05;89.17;97985.56;10367805;28;20041;-52
2023/05/03 21:32:36;;;;;;;23.80;18.35;;;;;;;11.00;90.52;97988.16;10364312;28;20108;-52
2023/05/03 21:37:35;;;;;;;21.92;17.15;;;;;;;11.04;90.66;97984.72;10365064;28;20044;-52
2023/05/03 21:42:34;;;;;;;19.40;14.23;;;;;;;10.97;90.20;97957.00;10364807;28;20076;-52
2023/05/03 21:47:33;;;;;;;20.13;13.80;;;;;;;10.82;90.15;97926.69;10361463;28;20477;-50
2023/05/03 21:52:33;;;;;;;18.40;13.75;;;;;;;11.02;89.38;97970.84;10361465;28;20044;-51
2023/05/03 21:57:31;;;;;;;18.52;13.25;;;;;;;11.10;89.57;97989.03;10358164;28;20163;-52
2023/05/03 22:02:30;;;;;;;18.35;13.45;;;;;;;10.88;90.10;97971.72;10362862;28;20047;-51
2023/05/03 22:07:29;;;;;;;20.40;13.15;;;;;;;10.90;89.56;97981.25;10359886;28;20037;-51
2023/05/03 22:12:28;;;;;;;18.33;13.95;;;;;;;10.84;90.01;97984.63;10358117;28;20037;-51
2023/05/03 22:17:27;;;;;;;23.00;15.98;;;;;;;10.68;90.27;97958.66;10354362;28;20116;-50
2023/05/03 22:22:26;;;;;;;23.42;17.55;;;;;;;10.76;90.72;97964.75;10354214;28;20088;-52
2023/05/03 22:27:25;;;;;;;25.10;17.33;;;;;;;10.71;90.30;97958.69;10354076;28;20047;-51
2023/05/03 22:32:24;;;;;;;24.08;17.58;;;;;;;10.74;90.70;97956.94;10356822;28;20163;-50
2023/05/03 22:37:23;;;;;;;26.33;18.85;;;;;;;10.76;90.74;97951.78;10359544;28;20036;-52
2023/05/03 22:42:22;;;;;;;23.75;16.83;;;;;;;10.78;91.15;97970.81;10359609;28;20068;-52
2023/05/03 22:47:21;;;;;;;16.85;12.80;;;;;;;10.65;91.50;97919.75;10364494;28;20137;-51
2023/05/03 22:52:20;;;;;;;14.80;10.98;;;;;;;10.85;91.18;97933.63;10368373;28;20072;-51
2023/05/03 22:57:19;;;;;;;16.63;11.27;;;;;;;10.83;90.72;97932.75;10367064;28;20549;-52
2023/05/03 23:02:18;;;;;;;19.63;14.43;;;;;;;10.78;91.70;97924.94;10364607;28;20124;-52
2023/05/03 23:07:17;;;;;;;17.08;13.57;;;;;;;10.83;92.00;97922.34;10369662;28;20020;-52
2023/05/03 23:12:17;;;;;;;19.85;15.07;;;;;;;10.97;91.10;97920.66;10366654;28;20114;-52
2023/05/03 23:17:16;;;;;;;19.70;14.38;;;;;;;11.07;90.93;97913.72;10366973;28;20610;-51
2023/05/03 23:22:15;;;;;;;;;;;;;;;11.10;90.45;97913.72;10366610;28;20072;-52
2023/05/03 23:27:14;;;;;;;18.23;13.15;;;;;;;11.12;90.39;97913.72;10366155;28;19916;-51